sensor_id;sensor_type;location;lat;lon;timestamp;P1;durP1;ratioP1;P2;durP2;ratioP2
26936;SDS011;14495;48.116;11.676;2022-08-19T00:00:07;4.53;;;3.40;;
26936;SDS011;14495;48.116;11.676;2022-08-19T00:02:34;3.55;;;2.83;;
26936;SDS011;14495;48.116;11.676;2022-08-19T00:05:00;3.92;;;2.97;;
26936;SDS011;14495;48.116;11.676;2022-08-19T00:07:26;4.05;;;3.13;;
26936;SDS011;14495;48.116;11.676;2022-08-19T00:09:51;4.55;;;3.45;;
26936;SDS011;14495;48.116;11.676;2022-08-19T00:12:16;5.18;;;3.88;;
26936;SDS011;14495;48.116;11.676;2022-08-19T00:14:42;4.13;;;3.35;;
26936;SDS011;14495;48.116;11.676;2022-08-19T00:17:07;4.43;;;3.25;;
26936;SDS011;14495;48.116;11.676;2022-08-19T00:19:33;3.97;;;2.85;;
26936;SDS011;14495;48.116;11.676;2022-08-19T00:22:00;3.47;;;2.75;;
26936;SDS011;14495;48.116;11.676;2022-08-19T00:24:25;4.03;;;2.95;;
26936;SDS011;14495;48.116;11.676;2022-08-19T00:26:51;4.15;;;3.00;;
26936;SDS011;14495;48.116;11.676;2022-08-19T00:29:18;3.30;;;2.58;;
26936;SDS011;14495;48.116;11.676;2022-08-19T00:31:46;5.32;;;3.38;;
26936;SDS011;14495;48.116;11.676;2022-08-19T00:34:13;4.65;;;2.90;;
26936;SDS011;14495;48.116;11.676;2022-08-19T00:36:39;4.20;;;3.33;;
26936;SDS011;14495;48.116;11.676;2022-08-19T00:39:06;5.18;;;3.75;;
26936;SDS011;14495;48.116;11.676;2022-08-19T00:41:32;4.95;;;3.45;;
26936;SDS011;14495;48.116;11.676;2022-08-19T00:43:58;4.40;;;3.30;;
26936;SDS011;14495;48.116;11.676;2022-08-19T00:46:32;4.28;;;3.15;;
26936;SDS011;14495;48.116;11.676;2022-08-19T00:49:00;5.10;;;3.70;;
26936;SDS011;14495;48.116;11.676;2022-08-19T00:51:31;4.68;;;3.42;;
26936;SDS011;14495;48.116;11.676;2022-08-19T00:53:57;5.50;;;3.50;;
26936;SDS011;14495;48.116;11.676;2022-08-19T00:56:24;6.60;;;4.45;;
26936;SDS011;14495;48.116;11.676;2022-08-19T00:58:51;5.03;;;3.67;;
26936;SDS011;14495;48.116;11.676;2022-08-19T01:01:19;4.53;;;3.47;;
26936;SDS011;14495;48.116;11.676;2022-08-19T01:03:44;4.85;;;3.85;;
26936;SDS011;14495;48.116;11.676;2022-08-19T01:06:10;5.20;;;3.75;;
26936;SDS011;14495;48.116;11.676;2022-08-19T01:08:35;4.80;;;3.88;;
26936;SDS011;14495;48.116;11.676;2022-08-19T01:11:00;6.40;;;4.00;;
26936;SDS011;14495;48.116;11.676;2022-08-19T01:13:30;5.35;;;4.15;;
26936;SDS011;14495;48.116;11.676;2022-08-19T01:18:26;5.80;;;3.97;;
26936;SDS011;14495;48.116;11.676;2022-08-19T01:20:53;6.82;;;4.68;;
26936;SDS011;14495;48.116;11.676;2022-08-19T01:23:21;6.88;;;4.47;;
26936;SDS011;14495;48.116;11.676;2022-08-19T01:28:15;6.65;;;5.00;;
26936;SDS011;14495;48.116;11.676;2022-08-19T01:30:46;5.53;;;4.32;;
26936;SDS011;14495;48.116;11.676;2022-08-19T01:33:12;6.45;;;4.32;;
26936;SDS011;14495;48.116;11.676;2022-08-19T01:35:38;7.43;;;5.00;;
26936;SDS011;14495;48.116;11.676;2022-08-19T01:38:06;6.43;;;4.85;;
26936;SDS011;14495;48.116;11.676;2022-08-19T01:40:36;5.75;;;4.28;;
26936;SDS011;14495;48.116;11.676;2022-08-19T01:43:04;5.30;;;4.28;;
26936;SDS011;14495;48.116;11.676;2022-08-19T01:45:30;4.63;;;3.58;;
26936;SDS011;14495;48.116;11.676;2022-08-19T01:47:59;7.82;;;4.63;;
26936;SDS011;14495;48.116;11.676;2022-08-19T01:50:24;6.07;;;4.20;;
26936;SDS011;14495;48.116;11.676;2022-08-19T01:52:50;4.43;;;3.83;;
26936;SDS011;14495;48.116;11.676;2022-08-19T01:55:17;4.40;;;3.72;;
26936;SDS011;14495;48.116;11.676;2022-08-19T01:57:46;5.25;;;4.18;;
26936;SDS011;14495;48.116;11.676;2022-08-19T02:00:16;5.20;;;3.77;;
26936;SDS011;14495;48.116;11.676;2022-08-19T02:02:43;4.72;;;3.75;;
26936;SDS011;14495;48.116;11.676;2022-08-19T02:05:08;4.80;;;3.90;;
26936;SDS011;14495;48.116;11.676;2022-08-19T02:07:35;4.88;;;3.60;;
26936;SDS011;14495;48.116;11.676;2022-08-19T02:10:05;8.82;;;4.18;;
26936;SDS011;14495;48.116;11.676;2022-08-19T02:12:33;4.50;;;3.30;;
26936;SDS011;14495;48.116;11.676;2022-08-19T02:14:58;5.00;;;3.75;;
26936;SDS011;14495;48.116;11.676;2022-08-19T02:17:26;7.25;;;4.18;;
26936;SDS011;14495;48.116;11.676;2022-08-19T02:19:51;4.50;;;3.50;;
26936;SDS011;14495;48.116;11.676;2022-08-19T02:22:16;4.68;;;3.83;;
26936;SDS011;14495;48.116;11.676;2022-08-19T02:24:42;4.35;;;3.20;;
26936;SDS011;14495;48.116;11.676;2022-08-19T02:27:07;4.63;;;3.15;;
26936;SDS011;14495;48.116;11.676;2022-08-19T02:29:32;4.93;;;3.55;;
26936;SDS011;14495;48.116;11.676;2022-08-19T02:31:58;4.68;;;3.33;;
26936;SDS011;14495;48.116;11.676;2022-08-19T02:34:23;4.22;;;3.15;;
26936;SDS011;14495;48.116;11.676;2022-08-19T02:36:50;4.80;;;3.40;;
26936;SDS011;14495;48.116;11.676;2022-08-19T02:39:15;3.85;;;3.15;;
26936;SDS011;14495;48.116;11.676;2022-08-19T02:41:41;3.25;;;2.75;;
26936;SDS011;14495;48.116;11.676;2022-08-19T02:44:06;5.07;;;2.97;;
26936;SDS011;14495;48.116;11.676;2022-08-19T02:46:32;4.65;;;3.05;;
26936;SDS011;14495;48.116;11.676;2022-08-19T02:49:00;4.35;;;2.97;;
26936;SDS011;14495;48.116;11.676;2022-08-19T02:51:31;4.40;;;2.80;;
26936;SDS011;14495;48.116;11.676;2022-08-19T02:54:01;3.92;;;2.95;;
26936;SDS011;14495;48.116;11.676;2022-08-19T02:56:28;4.10;;;2.90;;
26936;SDS011;14495;48.116;11.676;2022-08-19T02:58:54;4.70;;;3.38;;
26936;SDS011;14495;48.116;11.676;2022-08-19T03:01:24;4.35;;;3.30;;
26936;SDS011;14495;48.116;11.676;2022-08-19T03:03:53;4.10;;;3.13;;
26936;SDS011;14495;48.116;11.676;2022-08-19T03:06:20;5.53;;;3.72;;
26936;SDS011;14495;48.116;11.676;2022-08-19T03:08:47;4.55;;;3.38;;
26936;SDS011;14495;48.116;11.676;2022-08-19T03:11:22;4.38;;;3.33;;
26936;SDS011;14495;48.116;11.676;2022-08-19T03:13:49;4.30;;;2.92;;
26936;SDS011;14495;48.116;11.676;2022-08-19T03:16:16;5.75;;;3.70;;
26936;SDS011;14495;48.116;11.676;2022-08-19T03:18:42;5.00;;;3.67;;
26936;SDS011;14495;48.116;11.676;2022-08-19T03:21:07;4.72;;;3.17;;
26936;SDS011;14495;48.116;11.676;2022-08-19T03:23:33;5.05;;;3.28;;
26936;SDS011;14495;48.116;11.676;2022-08-19T03:25:58;6.88;;;3.72;;
26936;SDS011;14495;48.116;11.676;2022-08-19T03:28:24;6.65;;;3.78;;
26936;SDS011;14495;48.116;11.676;2022-08-19T03:30:57;5.97;;;3.80;;
26936;SDS011;14495;48.116;11.676;2022-08-19T03:33:24;4.57;;;3.25;;
26936;SDS011;14495;48.116;11.676;2022-08-19T03:36:00;4.47;;;3.10;;
26936;SDS011;14495;48.116;11.676;2022-08-19T03:38:27;6.53;;;3.60;;
26936;SDS011;14495;48.116;11.676;2022-08-19T03:40:53;4.35;;;3.13;;
26936;SDS011;14495;48.116;11.676;2022-08-19T03:43:18;4.75;;;3.40;;
26936;SDS011;14495;48.116;11.676;2022-08-19T03:45:44;4.88;;;2.80;;
26936;SDS011;14495;48.116;11.676;2022-08-19T03:48:09;4.03;;;2.95;;
26936;SDS011;14495;48.116;11.676;2022-08-19T03:50:38;5.15;;;3.75;;
26936;SDS011;14495;48.116;11.676;2022-08-19T03:53:04;5.47;;;3.22;;
26936;SDS011;14495;48.116;11.676;2022-08-19T03:55:29;4.80;;;3.33;;
26936;SDS011;14495;48.116;11.676;2022-08-19T03:57:55;4.85;;;3.10;;
26936;SDS011;14495;48.116;11.676;2022-08-19T04:00:21;4.88;;;3.60;;
26936;SDS011;14495;48.116;11.676;2022-08-19T04:02:46;4.43;;;3.38;;
26936;SDS011;14495;48.116;11.676;2022-08-19T04:05:12;4.13;;;3.13;;
26936;SDS011;14495;48.116;11.676;2022-08-19T04:07:38;3.88;;;2.83;;
26936;SDS011;14495;48.116;11.676;2022-08-19T04:10:04;5.65;;;3.70;;
26936;SDS011;14495;48.116;11.676;2022-08-19T04:12:30;6.50;;;3.17;;
26936;SDS011;14495;48.116;11.676;2022-08-19T04:14:56;6.32;;;3.60;;
26936;SDS011;14495;48.116;11.676;2022-08-19T04:17:21;4.65;;;3.28;;
26936;SDS011;14495;48.116;11.676;2022-08-19T04:19:47;6.88;;;3.25;;
26936;SDS011;14495;48.116;11.676;2022-08-19T04:22:12;4.03;;;3.13;;
26936;SDS011;14495;48.116;11.676;2022-08-19T04:24:38;4.45;;;3.22;;
26936;SDS011;14495;48.116;11.676;2022-08-19T04:27:03;3.97;;;3.08;;
26936;SDS011;14495;48.116;11.676;2022-08-19T04:29:30;4.55;;;3.25;;
26936;SDS011;14495;48.116;11.676;2022-08-19T04:31:56;4.82;;;3.70;;
26936;SDS011;14495;48.116;11.676;2022-08-19T04:34:24;4.78;;;3.47;;
26936;SDS011;14495;48.116;11.676;2022-08-19T04:36:52;5.88;;;3.47;;
26936;SDS011;14495;48.116;11.676;2022-08-19T04:39:21;4.47;;;2.88;;
26936;SDS011;14495;48.116;11.676;2022-08-19T04:42:09;4.00;;;2.85;;
26936;SDS011;14495;48.116;11.676;2022-08-19T04:44:53;5.18;;;3.42;;
26936;SDS011;14495;48.116;11.676;2022-08-19T04:47:19;4.90;;;2.55;;
26936;SDS011;14495;48.116;11.676;2022-08-19T04:49:44;5.88;;;4.25;;
26936;SDS011;14495;48.116;11.676;2022-08-19T04:52:09;4.43;;;3.30;;
26936;SDS011;14495;48.116;11.676;2022-08-19T04:54:35;6.35;;;3.50;;
26936;SDS011;14495;48.116;11.676;2022-08-19T04:57:00;8.15;;;3.47;;
26936;SDS011;14495;48.116;11.676;2022-08-19T04:59:25;5.35;;;3.63;;
26936;SDS011;14495;48.116;11.676;2022-08-19T05:01:51;5.55;;;4.10;;
26936;SDS011;14495;48.116;11.676;2022-08-19T05:04:19;5.05;;;3.55;;
26936;SDS011;14495;48.116;11.676;2022-08-19T05:06:48;5.03;;;3.63;;
26936;SDS011;14495;48.116;11.676;2022-08-19T05:09:14;5.85;;;3.97;;
26936;SDS011;14495;48.116;11.676;2022-08-19T05:11:40;6.38;;;3.90;;
26936;SDS011;14495;48.116;11.676;2022-08-19T05:14:06;4.80;;;3.58;;
26936;SDS011;14495;48.116;11.676;2022-08-19T05:16:32;4.25;;;3.08;;
26936;SDS011;14495;48.116;11.676;2022-08-19T05:18:57;3.70;;;2.85;;
26936;SDS011;14495;48.116;11.676;2022-08-19T05:21:42;4.10;;;3.13;;
26936;SDS011;14495;48.116;11.676;2022-08-19T05:24:26;7.97;;;3.85;;
26936;SDS011;14495;48.116;11.676;2022-08-19T05:26:53;4.57;;;3.35;;
26936;SDS011;14495;48.116;11.676;2022-08-19T05:29:21;5.50;;;3.25;;
26936;SDS011;14495;48.116;11.676;2022-08-19T05:31:48;4.38;;;3.30;;
26936;SDS011;14495;48.116;11.676;2022-08-19T05:34:14;7.20;;;3.90;;
26936;SDS011;14495;48.116;11.676;2022-08-19T05:36:42;7.05;;;3.45;;
26936;SDS011;14495;48.116;11.676;2022-08-19T05:39:11;4.13;;;2.80;;
26936;SDS011;14495;48.116;11.676;2022-08-19T05:41:43;3.97;;;2.83;;
26936;SDS011;14495;48.116;11.676;2022-08-19T05:44:11;5.00;;;3.75;;
26936;SDS011;14495;48.116;11.676;2022-08-19T05:46:37;4.78;;;3.22;;
26936;SDS011;14495;48.116;11.676;2022-08-19T05:49:04;6.03;;;3.85;;
26936;SDS011;14495;48.116;11.676;2022-08-19T05:51:31;4.32;;;3.50;;
26936;SDS011;14495;48.116;11.676;2022-08-19T05:53:59;5.68;;;3.65;;
26936;SDS011;14495;48.116;11.676;2022-08-19T05:56:24;6.10;;;3.97;;
26936;SDS011;14495;48.116;11.676;2022-08-19T05:58:50;5.68;;;3.65;;
26936;SDS011;14495;48.116;11.676;2022-08-19T06:01:16;5.07;;;3.50;;
26936;SDS011;14495;48.116;11.676;2022-08-19T06:03:43;5.60;;;3.58;;
26936;SDS011;14495;48.116;11.676;2022-08-19T06:06:10;5.70;;;3.90;;
26936;SDS011;14495;48.116;11.676;2022-08-19T06:08:38;4.55;;;3.80;;
26936;SDS011;14495;48.116;11.676;2022-08-19T06:11:15;5.13;;;3.95;;
26936;SDS011;14495;48.116;11.676;2022-08-19T06:13:50;4.93;;;3.60;;
26936;SDS011;14495;48.116;11.676;2022-08-19T06:16:21;5.60;;;3.83;;
26936;SDS011;14495;48.116;11.676;2022-08-19T06:18:50;4.55;;;3.63;;
26936;SDS011;14495;48.116;11.676;2022-08-19T06:21:17;5.45;;;4.18;;
26936;SDS011;14495;48.116;11.676;2022-08-19T06:23:44;7.43;;;4.55;;
26936;SDS011;14495;48.116;11.676;2022-08-19T06:26:13;6.25;;;4.78;;
26936;SDS011;14495;48.116;11.676;2022-08-19T06:28:40;6.47;;;4.47;;
26936;SDS011;14495;48.116;11.676;2022-08-19T06:31:11;7.57;;;5.30;;
26936;SDS011;14495;48.116;11.676;2022-08-19T06:33:41;7.75;;;5.13;;
26936;SDS011;14495;48.116;11.676;2022-08-19T06:36:08;7.30;;;5.25;;
26936;SDS011;14495;48.116;11.676;2022-08-19T06:39:02;7.28;;;5.50;;
26936;SDS011;14495;48.116;11.676;2022-08-19T06:41:36;7.68;;;5.68;;
26936;SDS011;14495;48.116;11.676;2022-08-19T06:44:04;7.80;;;5.15;;
26936;SDS011;14495;48.116;11.676;2022-08-19T06:46:30;8.20;;;5.35;;
26936;SDS011;14495;48.116;11.676;2022-08-19T06:48:56;9.75;;;6.38;;
26936;SDS011;14495;48.116;11.676;2022-08-19T06:51:22;11.00;;;6.88;;
26936;SDS011;14495;48.116;11.676;2022-08-19T06:53:49;8.95;;;6.13;;
26936;SDS011;14495;48.116;11.676;2022-08-19T06:56:17;8.48;;;5.90;;
26936;SDS011;14495;48.116;11.676;2022-08-19T06:58:46;10.90;;;6.15;;
26936;SDS011;14495;48.116;11.676;2022-08-19T07:01:13;11.98;;;6.35;;
26936;SDS011;14495;48.116;11.676;2022-08-19T07:03:38;9.65;;;6.55;;
26936;SDS011;14495;48.116;11.676;2022-08-19T07:06:13;9.20;;;6.40;;
26936;SDS011;14495;48.116;11.676;2022-08-19T07:08:42;10.63;;;6.70;;
26936;SDS011;14495;48.116;11.676;2022-08-19T07:11:09;10.55;;;6.90;;
26936;SDS011;14495;48.116;11.676;2022-08-19T07:13:36;8.38;;;6.30;;
26936;SDS011;14495;48.116;11.676;2022-08-19T07:16:06;9.70;;;6.30;;
26936;SDS011;14495;48.116;11.676;2022-08-19T07:18:33;9.25;;;6.22;;
26936;SDS011;14495;48.116;11.676;2022-08-19T07:21:07;8.25;;;5.80;;
26936;SDS011;14495;48.116;11.676;2022-08-19T07:23:32;10.40;;;6.88;;
26936;SDS011;14495;48.116;11.676;2022-08-19T07:25:58;9.45;;;6.95;;
26936;SDS011;14495;48.116;11.676;2022-08-19T07:28:30;9.85;;;6.55;;
26936;SDS011;14495;48.116;11.676;2022-08-19T07:30:56;10.48;;;7.10;;
26936;SDS011;14495;48.116;11.676;2022-08-19T07:33:21;11.90;;;7.10;;
26936;SDS011;14495;48.116;11.676;2022-08-19T07:35:46;13.68;;;7.93;;
26936;SDS011;14495;48.116;11.676;2022-08-19T07:38:12;12.40;;;7.95;;
26936;SDS011;14495;48.116;11.676;2022-08-19T07:40:38;10.40;;;7.25;;
26936;SDS011;14495;48.116;11.676;2022-08-19T07:43:06;11.00;;;6.72;;
26936;SDS011;14495;48.116;11.676;2022-08-19T07:45:31;11.13;;;7.07;;
26936;SDS011;14495;48.116;11.676;2022-08-19T07:47:57;10.80;;;7.55;;
26936;SDS011;14495;48.116;11.676;2022-08-19T07:50:22;10.57;;;7.40;;
26936;SDS011;14495;48.116;11.676;2022-08-19T07:52:48;9.98;;;7.68;;
26936;SDS011;14495;48.116;11.676;2022-08-19T07:55:15;11.70;;;8.15;;
26936;SDS011;14495;48.116;11.676;2022-08-19T07:57:41;12.07;;;7.93;;
26936;SDS011;14495;48.116;11.676;2022-08-19T08:00:07;12.68;;;7.78;;
26936;SDS011;14495;48.116;11.676;2022-08-19T08:02:33;11.40;;;7.88;;
26936;SDS011;14495;48.116;11.676;2022-08-19T08:04:58;13.10;;;8.15;;
26936;SDS011;14495;48.116;11.676;2022-08-19T08:07:42;10.88;;;7.82;;
26936;SDS011;14495;48.116;11.676;2022-08-19T08:10:26;12.00;;;8.18;;
26936;SDS011;14495;48.116;11.676;2022-08-19T08:12:51;12.35;;;8.25;;
26936;SDS011;14495;48.116;11.676;2022-08-19T08:15:17;10.88;;;7.07;;
26936;SDS011;14495;48.116;11.676;2022-08-19T08:17:44;10.48;;;7.78;;
26936;SDS011;14495;48.116;11.676;2022-08-19T08:20:10;13.20;;;9.38;;
26936;SDS011;14495;48.116;11.676;2022-08-19T08:22:36;16.48;;;9.70;;
26936;SDS011;14495;48.116;11.676;2022-08-19T08:25:21;12.40;;;8.43;;
26936;SDS011;14495;48.116;11.676;2022-08-19T08:27:48;15.70;;;8.82;;
26936;SDS011;14495;48.116;11.676;2022-08-19T08:30:19;11.85;;;8.38;;
26936;SDS011;14495;48.116;11.676;2022-08-19T08:32:47;12.32;;;8.00;;
26936;SDS011;14495;48.116;11.676;2022-08-19T08:35:15;13.55;;;8.93;;
26936;SDS011;14495;48.116;11.676;2022-08-19T08:37:44;12.55;;;8.70;;
26936;SDS011;14495;48.116;11.676;2022-08-19T08:40:18;13.05;;;8.52;;
26936;SDS011;14495;48.116;11.676;2022-08-19T08:42:46;13.00;;;8.90;;
26936;SDS011;14495;48.116;11.676;2022-08-19T08:45:19;15.43;;;8.85;;
26936;SDS011;14495;48.116;11.676;2022-08-19T08:47:47;11.32;;;8.18;;
26936;SDS011;14495;48.116;11.676;2022-08-19T08:53:01;19.42;;;10.25;;
26936;SDS011;14495;48.116;11.676;2022-08-19T08:55:28;14.05;;;9.38;;
26936;SDS011;14495;48.116;11.676;2022-08-19T08:57:59;16.08;;;10.15;;
26936;SDS011;14495;48.116;11.676;2022-08-19T09:00:38;16.88;;;11.05;;
26936;SDS011;14495;48.116;11.676;2022-08-19T09:03:12;17.98;;;11.48;;
26936;SDS011;14495;48.116;11.676;2022-08-19T09:05:59;19.55;;;11.20;;
26936;SDS011;14495;48.116;11.676;2022-08-19T09:08:39;20.65;;;11.63;;
26936;SDS011;14495;48.116;11.676;2022-08-19T09:16:55;15.02;;;10.30;;
26936;SDS011;14495;48.116;11.676;2022-08-19T09:19:22;17.58;;;10.50;;
26936;SDS011;14495;48.116;11.676;2022-08-19T09:21:47;16.17;;;10.15;;
26936;SDS011;14495;48.116;11.676;2022-08-19T09:24:14;16.17;;;10.45;;
26936;SDS011;14495;48.116;11.676;2022-08-19T09:26:39;15.50;;;10.13;;
26936;SDS011;14495;48.116;11.676;2022-08-19T09:29:05;14.18;;;10.20;;
26936;SDS011;14495;48.116;11.676;2022-08-19T09:31:30;14.65;;;10.15;;
26936;SDS011;14495;48.116;11.676;2022-08-19T09:33:57;13.52;;;9.45;;
26936;SDS011;14495;48.116;11.676;2022-08-19T09:36:25;12.65;;;8.55;;
26936;SDS011;14495;48.116;11.676;2022-08-19T09:38:54;11.90;;;8.40;;
26936;SDS011;14495;48.116;11.676;2022-08-19T09:41:22;13.98;;;8.82;;
26936;SDS011;14495;48.116;11.676;2022-08-19T09:43:50;10.85;;;8.52;;
26936;SDS011;14495;48.116;11.676;2022-08-19T09:46:18;11.52;;;8.15;;
26936;SDS011;14495;48.116;11.676;2022-08-19T09:48:45;11.18;;;7.90;;
26936;SDS011;14495;48.116;11.676;2022-08-19T09:51:13;12.25;;;8.45;;
26936;SDS011;14495;48.116;11.676;2022-08-19T09:53:41;13.05;;;8.57;;
26936;SDS011;14495;48.116;11.676;2022-08-19T09:56:08;11.38;;;7.65;;
26936;SDS011;14495;48.116;11.676;2022-08-19T09:58:34;13.10;;;8.10;;
26936;SDS011;14495;48.116;11.676;2022-08-19T10:01:01;11.30;;;7.53;;
26936;SDS011;14495;48.116;11.676;2022-08-19T10:03:28;8.45;;;6.53;;
26936;SDS011;14495;48.116;11.676;2022-08-19T10:05:54;10.77;;;7.50;;
26936;SDS011;14495;48.116;11.676;2022-08-19T10:08:22;9.55;;;6.82;;
26936;SDS011;14495;48.116;11.676;2022-08-19T10:10:50;9.13;;;6.72;;
26936;SDS011;14495;48.116;11.676;2022-08-19T10:13:18;10.80;;;7.70;;
26936;SDS011;14495;48.116;11.676;2022-08-19T10:15:50;12.57;;;7.07;;
26936;SDS011;14495;48.116;11.676;2022-08-19T10:18:16;9.32;;;7.00;;
26936;SDS011;14495;48.116;11.676;2022-08-19T10:20:43;8.48;;;5.68;;
26936;SDS011;14495;48.116;11.676;2022-08-19T10:23:10;9.60;;;6.50;;
26936;SDS011;14495;48.116;11.676;2022-08-19T10:25:36;8.57;;;5.95;;
26936;SDS011;14495;48.116;11.676;2022-08-19T10:28:02;7.60;;;5.82;;
26936;SDS011;14495;48.116;11.676;2022-08-19T10:30:28;11.40;;;5.60;;
26936;SDS011;14495;48.116;11.676;2022-08-19T10:32:54;7.63;;;4.90;;
26936;SDS011;14495;48.116;11.676;2022-08-19T10:35:19;6.85;;;5.22;;
26936;SDS011;14495;48.116;11.676;2022-08-19T10:37:45;6.05;;;4.70;;
26936;SDS011;14495;48.116;11.676;2022-08-19T10:40:10;7.03;;;4.85;;
26936;SDS011;14495;48.116;11.676;2022-08-19T10:42:36;7.60;;;5.47;;
26936;SDS011;14495;48.116;11.676;2022-08-19T10:45:03;9.30;;;5.32;;
26936;SDS011;14495;48.116;11.676;2022-08-19T10:47:31;7.38;;;5.43;;
26936;SDS011;14495;48.116;11.676;2022-08-19T10:49:57;7.47;;;5.47;;
26936;SDS011;14495;48.116;11.676;2022-08-19T10:52:42;7.30;;;5.22;;
26936;SDS011;14495;48.116;11.676;2022-08-19T10:55:10;5.63;;;4.20;;
26936;SDS011;14495;48.116;11.676;2022-08-19T10:57:54;6.35;;;4.13;;
26936;SDS011;14495;48.116;11.676;2022-08-19T11:00:20;6.15;;;4.43;;
26936;SDS011;14495;48.116;11.676;2022-08-19T11:02:48;6.85;;;4.53;;
26936;SDS011;14495;48.116;11.676;2022-08-19T11:05:14;5.97;;;4.38;;
26936;SDS011;14495;48.116;11.676;2022-08-19T11:07:39;5.55;;;4.60;;
26936;SDS011;14495;48.116;11.676;2022-08-19T11:10:06;7.30;;;4.85;;
26936;SDS011;14495;48.116;11.676;2022-08-19T11:12:33;6.03;;;4.53;;
26936;SDS011;14495;48.116;11.676;2022-08-19T11:14:58;6.57;;;4.57;;
26936;SDS011;14495;48.116;11.676;2022-08-19T11:17:24;6.72;;;4.70;;
26936;SDS011;14495;48.116;11.676;2022-08-19T11:19:49;6.45;;;4.43;;
26936;SDS011;14495;48.116;11.676;2022-08-19T11:22:15;8.23;;;5.22;;
26936;SDS011;14495;48.116;11.676;2022-08-19T11:24:40;6.22;;;4.60;;
26936;SDS011;14495;48.116;11.676;2022-08-19T11:27:07;6.47;;;4.47;;
26936;SDS011;14495;48.116;11.676;2022-08-19T11:29:34;4.47;;;3.65;;
26936;SDS011;14495;48.116;11.676;2022-08-19T11:32:03;4.70;;;3.58;;
26936;SDS011;14495;48.116;11.676;2022-08-19T11:34:31;5.40;;;3.85;;
26936;SDS011;14495;48.116;11.676;2022-08-19T11:36:57;3.72;;;3.33;;
26936;SDS011;14495;48.116;11.676;2022-08-19T11:39:23;5.25;;;3.85;;
26936;SDS011;14495;48.116;11.676;2022-08-19T11:41:50;4.43;;;3.20;;
26936;SDS011;14495;48.116;11.676;2022-08-19T11:44:16;3.95;;;3.08;;
26936;SDS011;14495;48.116;11.676;2022-08-19T11:46:42;4.57;;;3.03;;
26936;SDS011;14495;48.116;11.676;2022-08-19T11:49:11;4.82;;;3.45;;
26936;SDS011;14495;48.116;11.676;2022-08-19T11:51:40;4.63;;;3.35;;
26936;SDS011;14495;48.116;11.676;2022-08-19T11:54:08;4.18;;;3.40;;
26936;SDS011;14495;48.116;11.676;2022-08-19T11:56:34;4.28;;;3.42;;
26936;SDS011;14495;48.116;11.676;2022-08-19T11:59:02;4.47;;;3.50;;
26936;SDS011;14495;48.116;11.676;2022-08-19T12:01:27;5.78;;;4.50;;
26936;SDS011;14495;48.116;11.676;2022-08-19T12:03:54;5.88;;;4.15;;
26936;SDS011;14495;48.116;11.676;2022-08-19T12:06:22;5.28;;;4.35;;
26936;SDS011;14495;48.116;11.676;2022-08-19T12:08:50;4.97;;;3.95;;
26936;SDS011;14495;48.116;11.676;2022-08-19T12:11:16;3.60;;;2.83;;
26936;SDS011;14495;48.116;11.676;2022-08-19T12:13:42;3.40;;;2.47;;
26936;SDS011;14495;48.116;11.676;2022-08-19T12:16:11;3.47;;;2.30;;
26936;SDS011;14495;48.116;11.676;2022-08-19T12:18:40;3.72;;;2.55;;
26936;SDS011;14495;48.116;11.676;2022-08-19T12:21:09;3.50;;;2.25;;
26936;SDS011;14495;48.116;11.676;2022-08-19T12:23:36;3.67;;;2.70;;
26936;SDS011;14495;48.116;11.676;2022-08-19T12:26:02;4.53;;;2.13;;
26936;SDS011;14495;48.116;11.676;2022-08-19T12:28:28;2.88;;;2.08;;
26936;SDS011;14495;48.116;11.676;2022-08-19T12:30:53;1.90;;;1.65;;
26936;SDS011;14495;48.116;11.676;2022-08-19T12:33:21;1.83;;;1.38;;
26936;SDS011;14495;48.116;11.676;2022-08-19T12:35:50;1.80;;;1.35;;
26936;SDS011;14495;48.116;11.676;2022-08-19T12:38:15;1.00;;;0.70;;
26936;SDS011;14495;48.116;11.676;2022-08-19T12:40:41;1.17;;;0.90;;
26936;SDS011;14495;48.116;11.676;2022-08-19T12:43:09;1.40;;;1.00;;
26936;SDS011;14495;48.116;11.676;2022-08-19T12:45:36;1.00;;;0.88;;
26936;SDS011;14495;48.116;11.676;2022-08-19T12:48:02;1.05;;;0.95;;
26936;SDS011;14495;48.116;11.676;2022-08-19T12:50:28;1.35;;;0.75;;
26936;SDS011;14495;48.116;11.676;2022-08-19T12:52:54;0.90;;;0.80;;
26936;SDS011;14495;48.116;11.676;2022-08-19T12:55:20;0.88;;;0.68;;
26936;SDS011;14495;48.116;11.676;2022-08-19T12:57:45;0.90;;;0.60;;
26936;SDS011;14495;48.116;11.676;2022-08-19T13:00:15;0.85;;;0.65;;
26936;SDS011;14495;48.116;11.676;2022-08-19T13:02:43;0.50;;;0.50;;
26936;SDS011;14495;48.116;11.676;2022-08-19T13:05:11;0.50;;;0.50;;
26936;SDS011;14495;48.116;11.676;2022-08-19T13:07:40;0.95;;;0.80;;
26936;SDS011;14495;48.116;11.676;2022-08-19T13:10:11;0.90;;;0.73;;
26936;SDS011;14495;48.116;11.676;2022-08-19T13:15:06;1.63;;;0.75;;
26936;SDS011;14495;48.116;11.676;2022-08-19T13:17:33;1.50;;;0.70;;
26936;SDS011;14495;48.116;11.676;2022-08-19T13:19:59;0.60;;;0.60;;
26936;SDS011;14495;48.116;11.676;2022-08-19T13:22:24;0.85;;;0.68;;
26936;SDS011;14495;48.116;11.676;2022-08-19T13:24:50;1.35;;;0.60;;
26936;SDS011;14495;48.116;11.676;2022-08-19T13:27:15;0.65;;;0.60;;
26936;SDS011;14495;48.116;11.676;2022-08-19T13:29:41;0.50;;;0.50;;
26936;SDS011;14495;48.116;11.676;2022-08-19T13:32:25;1.20;;;1.00;;
26936;SDS011;14495;48.116;11.676;2022-08-19T13:35:09;1.60;;;1.00;;
26936;SDS011;14495;48.116;11.676;2022-08-19T13:37:35;4.88;;;3.75;;
26936;SDS011;14495;48.116;11.676;2022-08-19T13:40:06;1.42;;;0.95;;
26936;SDS011;14495;48.116;11.676;2022-08-19T13:42:37;0.75;;;0.60;;
26936;SDS011;14495;48.116;11.676;2022-08-19T13:45:03;1.10;;;0.80;;
26936;SDS011;14495;48.116;11.676;2022-08-19T13:47:31;1.20;;;0.90;;
26936;SDS011;14495;48.116;11.676;2022-08-19T13:49:56;1.02;;;0.80;;
26936;SDS011;14495;48.116;11.676;2022-08-19T13:52:22;1.05;;;0.95;;
26936;SDS011;14495;48.116;11.676;2022-08-19T13:54:47;0.80;;;0.70;;
26936;SDS011;14495;48.116;11.676;2022-08-19T13:57:13;1.40;;;0.68;;
26936;SDS011;14495;48.116;11.676;2022-08-19T13:59:39;0.82;;;0.70;;
26936;SDS011;14495;48.116;11.676;2022-08-19T14:02:04;0.80;;;0.80;;
26936;SDS011;14495;48.116;11.676;2022-08-19T14:04:30;0.90;;;0.73;;
26936;SDS011;14495;48.116;11.676;2022-08-19T14:06:55;1.42;;;0.98;;
26936;SDS011;14495;48.116;11.676;2022-08-19T14:09:21;1.15;;;1.00;;
26936;SDS011;14495;48.116;11.676;2022-08-19T14:11:46;0.90;;;0.70;;
26936;SDS011;14495;48.116;11.676;2022-08-19T14:14:11;0.75;;;0.68;;
26936;SDS011;14495;48.116;11.676;2022-08-19T14:16:37;1.20;;;1.08;;
26936;SDS011;14495;48.116;11.676;2022-08-19T14:19:03;1.23;;;1.02;;
26936;SDS011;14495;48.116;11.676;2022-08-19T14:21:28;1.15;;;1.05;;
26936;SDS011;14495;48.116;11.676;2022-08-19T14:23:53;1.80;;;1.05;;
26936;SDS011;14495;48.116;11.676;2022-08-19T14:26:19;1.00;;;0.88;;
26936;SDS011;14495;48.116;11.676;2022-08-19T14:28:46;0.75;;;0.65;;
26936;SDS011;14495;48.116;11.676;2022-08-19T14:31:12;4.28;;;3.40;;
26936;SDS011;14495;48.116;11.676;2022-08-19T14:33:41;5.10;;;3.67;;
26936;SDS011;14495;48.116;11.676;2022-08-19T14:36:07;1.52;;;1.38;;
26936;SDS011;14495;48.116;11.676;2022-08-19T14:38:32;2.67;;;1.30;;
26936;SDS011;14495;48.116;11.676;2022-08-19T14:41:09;1.75;;;1.33;;
26936;SDS011;14495;48.116;11.676;2022-08-19T14:43:35;1.20;;;1.05;;
26936;SDS011;14495;48.116;11.676;2022-08-19T14:46:01;1.60;;;1.20;;
26936;SDS011;14495;48.116;11.676;2022-08-19T14:48:26;1.98;;;1.35;;